sensor_id;sensor_type;location;lat;lon;timestamp;pressure;altitude;pressure_sealevel;temperature;humidity
55540;BME280;41384;51.418;7.286;2023-05-01T00:02:04;100030.91;;;10.73;76.58
55540;BME280;41384;51.418;7.286;2023-05-01T00:04:29;100025.63;;;10.73;77.08
55540;BME280;41384;51.418;7.286;2023-05-01T00:06:54;100033.53;;;10.46;77.75
55540;BME280;41384;51.418;7.286;2023-05-01T00:09:19;100025.31;;;10.34;78.94
55540;BME280;41384;51.418;7.286;2023-05-01T00:11:45;100024.31;;;10.35;79.16
55540;BME280;41384;51.418;7.286;2023-05-01T00:14:10;100018.41;;;10.20;79.48
55540;BME280;41384;51.418;7.286;2023-05-01T00:16:36;100018.34;;;10.06;80.66
55540;BME280;41384;51.418;7.286;2023-05-01T00:19:01;100011.06;;;10.08;80.79
55540;BME280;41384;51.418;7.286;2023-05-01T00:21:27;100001.53;;;10.14;80.96
55540;BME280;41384;51.418;7.286;2023-05-01T00:23:52;100005.16;;;10.13;80.80
55540;BME280;41384;51.418;7.286;2023-05-01T00:26:18;99998.28;;;10.12;81.02
55540;BME280;41384;51.418;7.286;2023-05-01T00:28:43;99992.44;;;10.24;80.06
55540;BME280;41384;51.418;7.286;2023-05-01T00:31:08;99994.00;;;10.11;80.30
55540;BME280;41384;51.418;7.286;2023-05-01T00:33:34;99993.00;;;10.12;80.25
55540;BME280;41384;51.418;7.286;2023-05-01T00:35:59;99981.69;;;10.25;80.19
55540;BME280;41384;51.418;7.286;2023-05-01T00:38:24;99983.88;;;10.15;80.15
55540;BME280;41384;51.418;7.286;2023-05-01T00:40:50;99992.03;;;10.33;78.52
55540;BME280;41384;51.418;7.286;2023-05-01T00:43:15;99980.69;;;10.33;79.55
55540;BME280;41384;51.418;7.286;2023-05-01T00:45:43;99975.66;;;10.51;78.34
55540;BME280;41384;51.418;7.286;2023-05-01T00:48:09;99976.66;;;10.44;78.94
55540;BME280;41384;51.418;7.286;2023-05-01T00:50:34;99972.16;;;10.31;79.31
55540;BME280;41384;51.418;7.286;2023-05-01T00:53:01;99970.09;;;10.13;80.05
55540;BME280;41384;51.418;7.286;2023-05-01T00:55:27;99970.63;;;9.95;81.71
55540;BME280;41384;51.418;7.286;2023-05-01T00:57:53;99961.94;;;10.01;80.94
55540;BME280;41384;51.418;7.286;2023-05-01T01:00:19;99957.25;;;9.89;81.70
55540;BME280;41384;51.418;7.286;2023-05-01T01:02:46;99963.31;;;9.83;81.97
55540;BME280;41384;51.418;7.286;2023-05-01T01:05:11;99955.59;;;9.88;82.00
55540;BME280;41384;51.418;7.286;2023-05-01T01:10:46;99945.06;;;9.88;81.57
55540;BME280;41384;51.418;7.286;2023-05-01T01:13:20;99935.53;;;9.81;81.04
55540;BME280;41384;51.418;7.286;2023-05-01T01:15:53;99938.31;;;9.66;83.03
55540;BME280;41384;51.418;7.286;2023-05-01T01:18:39;99934.03;;;9.71;82.05
55540;BME280;41384;51.418;7.286;2023-05-01T01:24:02;99937.13;;;9.75;82.95
55540;BME280;41384;51.418;7.286;2023-05-01T01:26:57;99930.78;;;9.62;82.90
55540;BME280;41384;51.418;7.286;2023-05-01T01:32:58;99923.53;;;9.78;82.49
55540;BME280;41384;51.418;7.286;2023-05-01T01:35:26;99928.63;;;9.86;81.15
55540;BME280;41384;51.418;7.286;2023-05-01T01:38:00;99920.72;;;9.80;82.14
55540;BME280;41384;51.418;7.286;2023-05-01T01:40:41;99916.59;;;9.70;82.57
55540;BME280;41384;51.418;7.286;2023-05-01T01:43:11;99918.47;;;9.76;81.61
55540;BME280;41384;51.418;7.286;2023-05-01T01:45:42;99916.38;;;9.65;83.06
55540;BME280;41384;51.418;7.286;2023-05-01T01:48:13;99909.72;;;9.62;82.74
55540;BME280;41384;51.418;7.286;2023-05-01T01:50:41;99909.44;;;9.51;84.32
55540;BME280;41384;51.418;7.286;2023-05-01T01:53:08;99903.44;;;9.70;83.08
55540;BME280;41384;51.418;7.286;2023-05-01T01:55:37;99900.00;;;9.70;82.80
55540;BME280;41384;51.418;7.286;2023-05-01T01:58:05;99896.53;;;9.62;83.38
55540;BME280;41384;51.418;7.286;2023-05-01T02:00:31;99902.81;;;9.61;83.29
55540;BME280;41384;51.418;7.286;2023-05-01T02:02:59;99894.69;;;9.56;84.00
55540;BME280;41384;51.418;7.286;2023-05-01T02:05:26;99891.09;;;9.77;83.52
55540;BME280;41384;51.418;7.286;2023-05-01T02:07:52;99885.88;;;9.91;82.17
55540;BME280;41384;51.418;7.286;2023-05-01T02:10:19;99889.72;;;9.95;81.52
55540;BME280;41384;51.418;7.286;2023-05-01T02:12:48;99885.03;;;9.90;82.39
55540;BME280;41384;51.418;7.286;2023-05-01T02:15:16;99877.66;;;9.59;82.99
55540;BME280;41384;51.418;7.286;2023-05-01T02:17:43;99879.34;;;9.80;82.58
55540;BME280;41384;51.418;7.286;2023-05-01T02:20:10;99868.97;;;9.72;82.52
55540;BME280;41384;51.418;7.286;2023-05-01T02:22:39;99868.81;;;9.93;81.52
55540;BME280;41384;51.418;7.286;2023-05-01T02:25:06;99862.31;;;9.89;81.67
55540;BME280;41384;51.418;7.286;2023-05-01T02:27:39;99862.13;;;9.77;82.40
55540;BME280;41384;51.418;7.286;2023-05-01T02:30:06;99863.75;;;9.78;82.72
55540;BME280;41384;51.418;7.286;2023-05-01T02:32:32;99858.25;;;9.73;82.25
55540;BME280;41384;51.418;7.286;2023-05-01T02:34:57;99854.78;;;9.73;82.82
55540;BME280;41384;51.418;7.286;2023-05-01T02:37:24;99859.03;;;9.67;83.32
55540;BME280;41384;51.418;7.286;2023-05-01T02:39:49;99852.75;;;9.75;83.47
55540;BME280;41384;51.418;7.286;2023-05-01T02:42:15;99856.63;;;9.79;82.43
55540;BME280;41384;51.418;7.286;2023-05-01T02:44:49;99848.09;;;9.77;82.77
55540;BME280;41384;51.418;7.286;2023-05-01T02:47:19;99844.09;;;9.88;82.30
55540;BME280;41384;51.418;7.286;2023-05-01T02:49:46;99842.47;;;10.00;81.88
55540;BME280;41384;51.418;7.286;2023-05-01T02:52:13;99837.78;;;9.96;81.55
55540;BME280;41384;51.418;7.286;2023-05-01T02:54:39;99832.31;;;9.90;82.93
55540;BME280;41384;51.418;7.286;2023-05-01T02:57:05;99832.53;;;10.02;82.26
55540;BME280;41384;51.418;7.286;2023-05-01T02:59:31;99832.53;;;10.02;82.53
55540;BME280;41384;51.418;7.286;2023-05-01T03:01:57;99824.81;;;10.14;81.90
55540;BME280;41384;51.418;7.286;2023-05-01T03:04:22;99827.06;;;10.11;80.34
55540;BME280;41384;51.418;7.286;2023-05-01T03:06:48;99824.63;;;10.22;79.97
55540;BME280;41384;51.418;7.286;2023-05-01T03:09:13;99809.38;;;10.31;80.01
55540;BME280;41384;51.418;7.286;2023-05-01T03:11:38;99809.00;;;10.28;80.68
55540;BME280;41384;51.418;7.286;2023-05-01T03:14:04;99807.56;;;10.25;81.17
55540;BME280;41384;51.418;7.286;2023-05-01T03:16:29;99803.53;;;10.22;81.60
55540;BME280;41384;51.418;7.286;2023-05-01T03:18:55;99801.28;;;10.13;81.46
55540;BME280;41384;51.418;7.286;2023-05-01T03:21:20;99801.47;;;10.38;80.65
55540;BME280;41384;51.418;7.286;2023-05-01T03:23:45;99798.47;;;10.41;79.53
55540;BME280;41384;51.418;7.286;2023-05-01T03:26:11;99810.41;;;10.44;78.13
55540;BME280;41384;51.418;7.286;2023-05-01T03:28:36;99797.22;;;10.50;78.86
55540;BME280;41384;51.418;7.286;2023-05-01T03:31:01;99791.53;;;10.47;79.13
55540;BME280;41384;51.418;7.286;2023-05-01T03:33:26;99788.72;;;10.42;79.51
55540;BME280;41384;51.418;7.286;2023-05-01T03:36:02;99789.72;;;10.34;80.43
55540;BME280;41384;51.418;7.286;2023-05-01T03:38:31;99785.22;;;10.34;79.91
55540;BME280;41384;51.418;7.286;2023-05-01T03:40:58;99789.91;;;10.32;79.70
55540;BME280;41384;51.418;7.286;2023-05-01T03:43:24;99784.03;;;10.30;80.31
55540;BME280;41384;51.418;7.286;2023-05-01T03:45:50;99778.38;;;10.27;80.31
55540;BME280;41384;51.418;7.286;2023-05-01T03:48:17;99777.53;;;10.33;79.58
55540;BME280;41384;51.418;7.286;2023-05-01T03:50:42;99775.53;;;10.21;80.32
55540;BME280;41384;51.418;7.286;2023-05-01T03:53:07;99777.75;;;10.18;80.96
55540;BME280;41384;51.418;7.286;2023-05-01T03:55:32;99769.22;;;10.16;80.43
55540;BME280;41384;51.418;7.286;2023-05-01T03:57:58;99775.34;;;10.16;80.65
55540;BME280;41384;51.418;7.286;2023-05-01T04:00:23;99778.97;;;10.02;82.10
55540;BME280;41384;51.418;7.286;2023-05-01T04:02:48;99774.91;;;10.06;82.17
55540;BME280;41384;51.418;7.286;2023-05-01T04:05:14;99767.22;;;10.04;81.59
55540;BME280;41384;51.418;7.286;2023-05-01T04:07:39;99775.34;;;10.16;80.90
55540;BME280;41384;51.418;7.286;2023-05-01T04:10:05;99776.72;;;10.12;82.01
55540;BME280;41384;51.418;7.286;2023-05-01T04:12:32;99767.19;;;10.18;81.20
55540;BME280;41384;51.418;7.286;2023-05-01T04:14:57;99768.63;;;10.07;82.34
55540;BME280;41384;51.418;7.286;2023-05-01T04:17:23;99768.03;;;10.12;82.31
55540;BME280;41384;51.418;7.286;2023-05-01T04:19:49;99758.69;;;10.22;81.58
55540;BME280;41384;51.418;7.286;2023-05-01T04:22:14;99768.03;;;10.18;82.00
55540;BME280;41384;51.418;7.286;2023-05-01T04:24:40;99752.78;;;10.07;82.72
55540;BME280;41384;51.418;7.286;2023-05-01T04:27:05;99767.41;;;10.10;82.72
55540;BME280;41384;51.418;7.286;2023-05-01T04:29:30;99756.44;;;10.06;83.06
55540;BME280;41384;51.418;7.286;2023-05-01T04:31:56;99762.94;;;10.10;82.97
55540;BME280;41384;51.418;7.286;2023-05-01T04:34:21;99758.28;;;10.19;84.07
55540;BME280;41384;51.418;7.286;2023-05-01T04:36:46;99761.72;;;10.26;82.30
55540;BME280;41384;51.418;7.286;2023-05-01T04:39:12;99753.00;;;10.19;82.83
55540;BME280;41384;51.418;7.286;2023-05-01T04:41:37;99753.00;;;10.12;83.83
55540;BME280;41384;51.418;7.286;2023-05-01T04:44:03;99754.59;;;10.33;81.94
55540;BME280;41384;51.418;7.286;2023-05-01T04:46:28;99755.81;;;10.37;81.99
55540;BME280;41384;51.418;7.286;2023-05-01T04:48:53;99759.69;;;10.35;81.92
55540;BME280;41384;51.418;7.286;2023-05-01T04:51:18;99752.78;;;10.34;83.37
55540;BME280;41384;51.418;7.286;2023-05-01T04:53:44;99754.78;;;10.39;82.68
55540;BME280;41384;51.418;7.286;2023-05-01T04:56:10;99753.19;;;10.44;83.02
55540;BME280;41384;51.418;7.286;2023-05-01T04:58:35;99758.25;;;10.46;82.90
55540;BME280;41384;51.418;7.286;2023-05-01T05:01:00;99752.31;;;10.57;81.60
55540;BME280;41384;51.418;7.286;2023-05-01T05:03:25;99751.53;;;10.63;81.42
55540;BME280;41384;51.418;7.286;2023-05-01T05:05:51;99753.75;;;10.67;81.58
55540;BME280;41384;51.418;7.286;2023-05-01T05:08:16;99749.25;;;10.67;82.27
55540;BME280;41384;51.418;7.286;2023-05-01T05:10:41;99748.06;;;10.70;82.31
55540;BME280;41384;51.418;7.286;2023-05-01T05:13:07;99749.66;;;10.71;81.29
55540;BME280;41384;51.418;7.286;2023-05-01T05:15:33;99749.75;;;10.96;79.91
55540;BME280;41384;51.418;7.286;2023-05-01T05:17:59;99753.81;;;11.05;78.70
55540;BME280;41384;51.418;7.286;2023-05-01T05:20:25;99748.28;;;11.07;78.47
55540;BME280;41384;51.418;7.286;2023-05-01T05:22:51;99753.97;;;11.11;76.71
55540;BME280;41384;51.418;7.286;2023-05-01T05:25:16;99753.97;;;11.11;74.09
55540;BME280;41384;51.418;7.286;2023-05-01T05:27:41;99747.03;;;11.16;73.23
55540;BME280;41384;51.418;7.286;2023-05-01T05:30:07;99752.09;;;11.18;71.76
55540;BME280;41384;51.418;7.286;2023-05-01T05:32:33;99753.69;;;11.26;71.12
55540;BME280;41384;51.418;7.286;2023-05-01T05:34:58;99755.47;;;11.32;70.80
55540;BME280;41384;51.418;7.286;2023-05-01T05:37:24;99750.16;;;11.38;70.54
55540;BME280;41384;51.418;7.286;2023-05-01T05:39:50;99750.31;;;11.44;69.31
55540;BME280;41384;51.418;7.286;2023-05-01T05:42:15;99748.69;;;11.49;69.83
55540;BME280;41384;51.418;7.286;2023-05-01T05:44:41;99746.41;;;11.53;68.63
55540;BME280;41384;51.418;7.286;2023-05-01T05:47:06;99745.94;;;11.63;68.59
55540;BME280;41384;51.418;7.286;2023-05-01T05:49:31;99749.09;;;11.72;68.00
55540;BME280;41384;51.418;7.286;2023-05-01T05:51:57;99749.53;;;11.68;67.57
55540;BME280;41384;51.418;7.286;2023-05-01T05:54:22;99752.75;;;11.77;67.71
55540;BME280;41384;51.418;7.286;2023-05-01T05:56:47;99747.44;;;11.77;67.04
55540;BME280;41384;51.418;7.286;2023-05-01T05:59:12;99749.00;;;11.85;67.21
55540;BME280;41384;51.418;7.286;2023-05-01T06:01:38;99743.06;;;11.90;66.61
55540;BME280;41384;51.418;7.286;2023-05-01T06:04:04;99751.16;;;12.02;66.91
55540;BME280;41384;51.418;7.286;2023-05-01T06:06:31;99742.13;;;12.09;66.67
55540;BME280;41384;51.418;7.286;2023-05-01T06:08:57;99741.75;;;12.06;65.75
55540;BME280;41384;51.418;7.286;2023-05-01T06:11:22;99747.78;;;12.13;65.85
55540;BME280;41384;51.418;7.286;2023-05-01T06:13:47;99743.00;;;12.22;66.59
55540;BME280;41384;51.418;7.286;2023-05-01T06:16:13;99745.28;;;12.18;66.26
55540;BME280;41384;51.418;7.286;2023-05-01T06:18:39;99752.81;;;12.21;66.27
55540;BME280;41384;51.418;7.286;2023-05-01T06:21:05;99739.34;;;12.23;65.97
55540;BME280;41384;51.418;7.286;2023-05-01T06:23:30;99743.75;;;12.29;65.83
55540;BME280;41384;51.418;7.286;2023-05-01T06:25:56;99749.78;;;12.36;66.40
55540;BME280;41384;51.418;7.286;2023-05-01T06:28:21;99747.91;;;12.44;66.28
55540;BME280;41384;51.418;7.286;2023-05-01T06:30:46;99740.56;;;12.46;67.12
55540;BME280;41384;51.418;7.286;2023-05-01T06:33:12;99745.59;;;12.47;66.27
55540;BME280;41384;51.418;7.286;2023-05-01T06:35:38;99744.53;;;12.55;65.67
55540;BME280;41384;51.418;7.286;2023-05-01T06:38:04;99737.75;;;12.59;65.58
55540;BME280;41384;51.418;7.286;2023-05-01T06:40:29;99738.34;;;12.61;65.14
55540;BME280;41384;51.418;7.286;2023-05-01T06:42:56;99739.28;;;12.67;65.29
55540;BME280;41384;51.418;7.286;2023-05-01T06:45:21;99733.91;;;12.74;65.99
55540;BME280;41384;51.418;7.286;2023-05-01T06:47:46;99739.56;;;12.77;66.20
55540;BME280;41384;51.418;7.286;2023-05-01T06:50:12;99739.72;;;12.82;66.36
55540;BME280;41384;51.418;7.286;2023-05-01T06:52:37;99736.41;;;12.87;66.36
55540;BME280;41384;51.418;7.286;2023-05-01T06:55:02;99739.75;;;12.94;65.84
55540;BME280;41384;51.418;7.286;2023-05-01T06:57:28;99739.56;;;12.96;66.46
55540;BME280;41384;51.418;7.286;2023-05-01T06:59:53;99738.22;;;13.05;66.00
55540;BME280;41384;51.418;7.286;2023-05-01T07:02:18;99736.81;;;13.03;64.71
55540;BME280;41384;51.418;7.286;2023-05-01T07:04:44;99741.22;;;13.09;65.61
55540;BME280;41384;51.418;7.286;2023-05-01T07:07:09;99732.34;;;13.15;65.69
55540;BME280;41384;51.418;7.286;2023-05-01T07:09:35;99737.56;;;13.22;65.53
55540;BME280;41384;51.418;7.286;2023-05-01T07:12:00;99727.09;;;13.27;65.10
55540;BME280;41384;51.418;7.286;2023-05-01T07:14:27;99725.03;;;13.29;65.20
55540;BME280;41384;51.418;7.286;2023-05-01T07:16:52;99733.94;;;13.35;64.21
55540;BME280;41384;51.418;7.286;2023-05-01T07:19:18;99729.44;;;13.35;64.50
55540;BME280;41384;51.418;7.286;2023-05-01T07:21:43;99728.97;;;13.38;64.33
55540;BME280;41384;51.418;7.286;2023-05-01T07:24:09;99732.59;;;13.44;64.80
55540;BME280;41384;51.418;7.286;2023-05-01T07:26:34;99729.84;;;13.51;64.99
55540;BME280;41384;51.418;7.286;2023-05-01T07:28:59;99734.81;;;13.59;65.00
55540;BME280;41384;51.418;7.286;2023-05-01T07:31:24;99732.16;;;13.59;65.22
55540;BME280;41384;51.418;7.286;2023-05-01T07:33:50;99733.56;;;13.62;65.66
55540;BME280;41384;51.418;7.286;2023-05-01T07:36:15;99730.78;;;13.68;65.78
55540;BME280;41384;51.418;7.286;2023-05-01T07:38:42;99728.03;;;13.75;63.58
55540;BME280;41384;51.418;7.286;2023-05-01T07:41:07;99724.13;;;13.78;63.00
55540;BME280;41384;51.418;7.286;2023-05-01T07:43:33;99725.41;;;13.87;62.33
55540;BME280;41384;51.418;7.286;2023-05-01T07:45:59;99726.44;;;13.98;62.67
55540;BME280;41384;51.418;7.286;2023-05-01T07:48:26;99727.81;;;14.00;62.00
55540;BME280;41384;51.418;7.286;2023-05-01T07:50:52;99728.41;;;14.03;60.87
55540;BME280;41384;51.418;7.286;2023-05-01T07:53:19;99726.06;;;14.06;62.31
55540;BME280;41384;51.418;7.286;2023-05-01T07:55:46;99720.56;;;14.08;62.46
55540;BME280;41384;51.418;7.286;2023-05-01T07:58:12;99723.78;;;14.10;60.68
55540;BME280;41384;51.418;7.286;2023-05-01T08:00:37;99724.00;;;14.20;60.40
55540;BME280;41384;51.418;7.286;2023-05-01T08:03:02;99720.78;;;14.30;60.19
55540;BME280;41384;51.418;7.286;2023-05-01T08:05:27;99722.50;;;14.36;60.90
55540;BME280;41384;51.418;7.286;2023-05-01T08:07:53;99716.59;;;14.34;60.22
55540;BME280;41384;51.418;7.286;2023-05-01T08:10:18;99720.53;;;14.32;60.63
55540;BME280;41384;51.418;7.286;2023-05-01T08:12:43;99726.75;;;14.37;61.38
55540;BME280;41384;51.418;7.286;2023-05-01T08:15:08;99717.19;;;14.36;61.08
55540;BME280;41384;51.418;7.286;2023-05-01T08:17:35;99722.03;;;14.39;60.70
55540;BME280;41384;51.418;7.286;2023-05-01T08:20:00;99721.09;;;14.45;60.68
55540;BME280;41384;51.418;7.286;2023-05-01T08:22:25;99723.59;;;14.52;60.37
55540;BME280;41384;51.418;7.286;2023-05-01T08:24:51;99719.91;;;14.53;61.07
55540;BME280;41384;51.418;7.286;2023-05-01T08:27:16;99720.16;;;14.52;59.90
55540;BME280;41384;51.418;7.286;2023-05-01T08:29:42;99711.47;;;14.56;59.77
55540;BME280;41384;51.418;7.286;2023-05-01T08:32:07;99717.47;;;14.64;59.22
55540;BME280;41384;51.418;7.286;2023-05-01T08:34:32;99709.81;;;14.67;58.32
55540;BME280;41384;51.418;7.286;2023-05-01T08:36:58;99716.56;;;14.70;59.46
55540;BME280;41384;51.418;7.286;2023-05-01T08:39:23;99709.38;;;14.70;59.40
55540;BME280;41384;51.418;7.286;2023-05-01T08:41:49;99712.50;;;14.79;59.52
55540;BME280;41384;51.418;7.286;2023-05-01T08:44:15;99714.41;;;14.84;59.56
55540;BME280;41384;51.418;7.286;2023-05-01T08:46:48;99711.28;;;14.87;59.40
55540;BME280;41384;51.418;7.286;2023-05-01T08:49:16;99709.19;;;14.89;59.25
55540;BME280;41384;51.418;7.286;2023-05-01T08:51:46;99709.44;;;14.87;59.56
55540;BME280;41384;51.418;7.286;2023-05-01T08:54:13;99715.34;;;14.90;59.01
55540;BME280;41384;51.418;7.286;2023-05-01T08:56:39;99714.84;;;14.93;58.22
55540;BME280;41384;51.418;7.286;2023-05-01T08:59:08;99713.34;;;14.97;58.86
55540;BME280;41384;51.418;7.286;2023-05-01T09:01:35;99714.81;;;15.05;58.91
55540;BME280;41384;51.418;7.286;2023-05-01T09:04:02;99712.16;;;15.05;58.72
55540;BME280;41384;51.418;7.286;2023-05-01T09:06:28;99710.94;;;15.12;57.98
55540;BME280;41384;51.418;7.286;2023-05-01T09:08:53;99714.19;;;15.14;57.91
55540;BME280;41384;51.418;7.286;2023-05-01T09:11:20;99709.91;;;15.13;58.43
55540;BME280;41384;51.418;7.286;2023-05-01T09:13:46;99713.31;;;15.26;57.64
55540;BME280;41384;51.418;7.286;2023-05-01T09:16:12;99712.66;;;15.18;57.96
55540;BME280;41384;51.418;7.286;2023-05-01T09:18:37;99708.91;;;15.31;57.92
55540;BME280;41384;51.418;7.286;2023-05-01T09:21:05;99704.38;;;15.32;58.70
55540;BME280;41384;51.418;7.286;2023-05-01T09:23:30;99698.34;;;15.37;57.93
55540;BME280;41384;51.418;7.286;2023-05-01T09:25:56;99705.94;;;15.62;57.47
55540;BME280;41384;51.418;7.286;2023-05-01T09:28:43;99702.03;;;15.70;56.65
55540;BME280;41384;51.418;7.286;2023-05-01T09:31:25;99702.44;;;15.79;56.94
55540;BME280;41384;51.418;7.286;2023-05-01T09:34:00;99697.38;;;15.77;57.44
55540;BME280;41384;51.418;7.286;2023-05-01T09:36:28;99696.72;;;15.70;57.25
55540;BME280;41384;51.418;7.286;2023-05-01T09:38:58;99696.66;;;15.82;55.55
55540;BME280;41384;51.418;7.286;2023-05-01T09:41:25;99705.91;;;15.79;56.04
55540;BME280;41384;51.418;7.286;2023-05-01T09:43:59;99700.34;;;15.81;56.56
55540;BME280;41384;51.418;7.286;2023-05-01T09:46:25;99699.78;;;15.79;56.55
55540;BME280;41384;51.418;7.286;2023-05-01T09:48:53;99700.75;;;15.89;57.63
55540;BME280;41384;51.418;7.286;2023-05-01T09:53:51;99696.47;;;16.05;56.80
55540;BME280;41384;51.418;7.286;2023-05-01T09:56:18;99688.56;;;16.11;56.99
55540;BME280;41384;51.418;7.286;2023-05-01T09:58:43;99697.03;;;16.08;57.47
55540;BME280;41384;51.418;7.286;2023-05-01T10:01:09;99687.44;;;16.07;56.14
55540;BME280;41384;51.418;7.286;2023-05-01T10:03:34;99697.28;;;16.06;57.13
55540;BME280;41384;51.418;7.286;2023-05-01T10:05:59;99685.09;;;16.10;56.33
55540;BME280;41384;51.418;7.286;2023-05-01T10:08:43;99688.19;;;16.24;56.37
55540;BME280;41384;51.418;7.286;2023-05-01T10:11:09;99691.31;;;16.38;57.02
55540;BME280;41384;51.418;7.286;2023-05-01T10:13:34;99688.47;;;16.45;56.27
55540;BME280;41384;51.418;7.286;2023-05-01T10:16:00;99696.47;;;16.45;55.16
55540;BME280;41384;51.418;7.286;2023-05-01T10:18:27;99692.53;;;16.53;55.98
55540;BME280;41384;51.418;7.286;2023-05-01T10:20:55;99692.78;;;16.51;55.86
55540;BME280;41384;51.418;7.286;2023-05-01T10:23:20;99688.94;;;16.64;55.58
55540;BME280;41384;51.418;7.286;2023-05-01T10:25:48;99677.03;;;16.72;56.50
55540;BME280;41384;51.418;7.286;2023-05-01T10:28:14;99684.56;;;16.80;55.39
55540;BME280;41384;51.418;7.286;2023-05-01T10:30:40;99678.78;;;16.88;54.79
55540;BME280;41384;51.418;7.286;2023-05-01T10:33:05;99686.75;;;16.83;54.01
55540;BME280;41384;51.418;7.286;2023-05-01T10:35:34;99689.59;;;16.99;52.98
55540;BME280;41384;51.418;7.286;2023-05-01T10:38:05;99689.00;;;16.97;52.63
55540;BME280;41384;51.418;7.286;2023-05-01T10:45:42;99677.81;;;17.22;51.97
55540;BME280;41384;51.418;7.286;2023-05-01T10:48:07;99682.13;;;17.01;53.43
55540;BME280;41384;51.418;7.286;2023-05-01T10:50:33;99681.50;;;16.93;52.67
55540;BME280;41384;51.418;7.286;2023-05-01T10:55:41;99676.38;;;17.14;51.74
55540;BME280;41384;51.418;7.286;2023-05-01T10:58:10;99668.25;;;16.99;52.63
55540;BME280;41384;51.418;7.286;2023-05-01T11:00:35;99667.53;;;16.81;51.70
55540;BME280;41384;51.418;7.286;2023-05-01T11:08:36;99661.97;;;16.83;52.02
55540;BME280;41384;51.418;7.286;2023-05-01T11:13:57;99665.41;;;16.83;50.99
55540;BME280;41384;51.418;7.286;2023-05-01T11:19:04;99654.13;;;16.98;51.01
55540;BME280;41384;51.418;7.286;2023-05-01T11:21:30;99659.13;;;16.95;50.50
55540;BME280;41384;51.418;7.286;2023-05-01T11:24:05;99661.06;;;16.99;51.95
55540;BME280;41384;51.418;7.286;2023-05-01T11:26:31;99652.53;;;16.97;50.82
55540;BME280;41384;51.418;7.286;2023-05-01T11:29:00;99652.69;;;16.90;51.40
55540;BME280;41384;51.418;7.286;2023-05-01T11:31:26;99656.38;;;16.84;51.38
55540;BME280;41384;51.418;7.286;2023-05-01T11:33:54;99660.91;;;16.84;50.39
55540;BME280;41384;51.418;7.286;2023-05-01T11:36:20;99658.78;;;16.86;50.04
55540;BME280;41384;51.418;7.286;2023-05-01T11:41:18;99648.50;;;16.72;51.84
55540;BME280;41384;51.418;7.286;2023-05-01T11:43:52;99644.44;;;16.65;49.84
55540;BME280;41384;51.418;7.286;2023-05-01T11:46:28;99651.94;;;16.68;50.46
55540;BME280;41384;51.418;7.286;2023-05-01T11:48:58;99645.78;;;16.67;51.47
55540;BME280;41384;51.418;7.286;2023-05-01T11:51:24;99650.06;;;16.68;51.95
55540;BME280;41384;51.418;7.286;2023-05-01T11:54:09;99647.25;;;16.80;52.07
55540;BME280;41384;51.418;7.286;2023-05-01T11:56:36;99646.94;;;17.31;48.74
55540;BME280;41384;51.418;7.286;2023-05-01T11:59:11;99641.50;;;17.54;48.97
55540;BME280;41384;51.418;7.286;2023-05-01T12:01:42;99637.91;;;17.38;48.10
55540;BME280;41384;51.418;7.286;2023-05-01T12:04:09;99636.00;;;17.28;49.44
55540;BME280;41384;51.418;7.286;2023-05-01T12:06:45;99642.31;;;17.21;49.30
55540;BME280;41384;51.418;7.286;2023-05-01T12:09:18;99631.72;;;17.27;48.94
55540;BME280;41384;51.418;7.286;2023-05-01T12:11:44;99625.53;;;17.59;48.23
55540;BME280;41384;51.418;7.286;2023-05-01T12:14:11;99630.47;;;17.88;47.34
55540;BME280;41384;51.418;7.286;2023-05-01T12:16:38;99634.97;;;17.77;47.26
55540;BME280;41384;51.418;7.286;2023-05-01T12:19:07;99630.06;;;17.63;47.46
55540;BME280;41384;51.418;7.286;2023-05-01T12:21:33;99635.63;;;17.52;47.75
55540;BME280;41384;51.418;7.286;2023-05-01T12:24:11;99626.94;;;17.29;47.81
55540;BME280;41384;51.418;7.286;2023-05-01T12:26:39;99618.81;;;17.18;47.97
55540;BME280;41384;51.418;7.286;2023-05-01T12:29:05;99621.41;;;17.08;47.47
55540;BME280;41384;51.418;7.286;2023-05-01T12:31:32;99625.13;;;17.07;46.63
55540;BME280;41384;51.418;7.286;2023-05-01T12:33:59;99632.53;;;17.00;48.69
55540;BME280;41384;51.418;7.286;2023-05-01T12:36:27;99628.53;;;16.97;48.46
55540;BME280;41384;51.418;7.286;2023-05-01T12:38:59;99623.47;;;17.01;48.56
55540;BME280;41384;51.418;7.286;2023-05-01T12:41:47;99625.28;;;16.95;49.31
55540;BME280;41384;51.418;7.286;2023-05-01T12:44:20;99633.94;;;17.08;47.22
55540;BME280;41384;51.418;7.286;2023-05-01T12:47:00;99635.69;;;16.97;48.44
55540;BME280;41384;51.418;7.286;2023-05-01T12:49:26;99632.97;;;16.91;48.25
55540;BME280;41384;51.418;7.286;2023-05-01T12:51:55;99634.53;;;16.87;46.92
55540;BME280;41384;51.418;7.286;2023-05-01T12:56:50;99631.28;;;16.80;48.21
55540;BME280;41384;51.418;7.286;2023-05-01T12:59:23;99630.72;;;16.78;49.77
55540;BME280;41384;51.418;7.286;2023-05-01T13:02:03;99619.81;;;16.80;50.69
55540;BME280;41384;51.418;7.286;2023-05-01T13:04:29;99619.88;;;16.85;50.21
55540;BME280;41384;51.418;7.286;2023-05-01T13:06:55;99618.31;;;16.89;49.49
55540;BME280;41384;51.418;7.286;2023-05-01T13:09:25;99618.03;;;16.90;50.23
55540;BME280;41384;51.418;7.286;2023-05-01T13:12:01;99617.25;;;16.90;50.55
55540;BME280;41384;51.418;7.286;2023-05-01T13:14:29;99608.97;;;16.91;50.63
55540;BME280;41384;51.418;7.286;2023-05-01T13:16:59;99613.03;;;16.94;49.57
55540;BME280;41384;51.418;7.286;2023-05-01T13:19:28;99614.88;;;16.93;49.95
55540;BME280;41384;51.418;7.286;2023-05-01T13:21:55;99609.03;;;16.97;50.00
55540;BME280;41384;51.418;7.286;2023-05-01T13:24:21;99611.53;;;17.03;48.98
55540;BME280;41384;51.418;7.286;2023-05-01T13:26:47;99614.47;;;17.07;47.74
55540;BME280;41384;51.418;7.286;2023-05-01T13:29:20;99613.13;;;17.04;48.96
55540;BME280;41384;51.418;7.286;2023-05-01T13:31:47;99613.38;;;17.03;48.23
55540;BME280;41384;51.418;7.286;2023-05-01T13:34:16;99608.31;;;17.01;47.92
55540;BME280;41384;51.418;7.286;2023-05-01T13:36:45;99605.81;;;16.95;48.13
55540;BME280;41384;51.418;7.286;2023-05-01T13:39:17;99609.53;;;16.93;48.51